Time;durP1;ratioP1;P1;durP2;ratioP2;P2;SDS_P1;SDS_P2;PMS_P1;PMS_P2;Temp;Humidity;BMP_temperature;BMP_pressure;BME280_temperature;BME280_humidity;BME280_pressure;Samples;Min_cycle;Max_cycle;Signal;HPM_P1;HPM_P2
2022/04/06 00:00:38;;;;;;;31.15;15.95;;;;;;;;;;4982542;28;20221;-59
2022/04/06 00:03:03;;;;;;;26.73;14.60;;;;;;;;;;4983771;28;20225;-59
2022/04/06 00:05:29;;;;;;;29.63;15.48;;;;;;;;;;4982743;28;20208;-59
2022/04/06 00:07:54;;;;;;;26.67;15.43;;;;;;;;;;4983788;28;20214;-59
2022/04/06 00:10:19;;;;;;;31.75;15.20;;;;;;;;;;4983072;28;20212;-59
2022/04/06 00:12:45;;;;;;;31.65;15.45;;;;;;;;;;4983261;28;20898;-59
2022/04/06 00:15:10;;;;;;;31.67;14.60;;;;;;;;;;4978577;28;20275;-59
2022/04/06 00:17:36;;;;;;;30.10;15.07;;;;;;;;;;4978587;28;21332;-59
2022/04/06 00:20:01;;;;;;;27.52;13.70;;;;;;;;;;4974793;28;20228;-60
2022/04/06 00:22:26;;;;;;;25.27;13.32;;;;;;;;;;4979612;28;20205;-59
2022/04/06 00:24:51;;;;;;;28.25;13.20;;;;;;;;;;4983686;28;20775;-59
2022/04/06 00:27:17;;;;;;;32.33;13.70;;;;;;;;;;4982422;28;20217;-59
2022/04/06 00:29:42;;;;;;;29.63;13.52;;;;;;;;;;5001138;28;20693;-59
2022/04/06 00:32:08;;;;;;;33.13;13.15;;;;;;;;;;5002143;28;20220;-59
2022/04/06 00:37:17;;;;;;;27.30;12.93;;;;;;;;;;4999074;28;20290;-59
2022/04/06 00:39:42;;;;;;;24.75;12.05;;;;;;;;;;4987991;28;20213;-59
2022/04/06 00:42:07;;;;;;;23.67;12.35;;;;;;;;;;4974611;28;20555;-59
2022/04/06 00:44:34;;;;;;;27.20;12.35;;;;;;;;;;4987195;28;20271;-59
2022/04/06 00:47:00;;;;;;;29.08;12.80;;;;;;;;;;4982156;28;20201;-59
2022/04/06 00:49:26;;;;;;;25.75;12.55;;;;;;;;;;4983076;28;20720;-59
2022/04/06 00:51:51;;;;;;;26.40;11.45;;;;;;;;;;4982775;28;20233;-59
2022/04/06 00:54:17;;;;;;;25.35;12.32;;;;;;;;;;4999305;28;20232;-59
2022/04/06 00:56:44;;;;;;;23.50;11.43;;;;;;;;;;5002566;28;20316;-59
2022/04/06 00:59:09;;;;;;;28.50;11.15;;;;;;;;;;4982477;28;20224;-59
2022/04/06 01:01:34;;;;;;;24.90;11.55;;;;;;;;;;4993592;28;20789;-59
2022/04/06 01:04:00;;;;;;;26.55;11.73;;;;;;;;;;4994465;28;20259;-59
2022/04/06 01:06:25;;;;;;;26.83;11.80;;;;;;;;;;4994698;28;21292;-59
2022/04/06 01:08:52;;;;;;;22.65;11.10;;;;;;;;;;4999482;28;20219;-59
2022/04/06 01:11:17;;;;;;;27.90;11.30;;;;;;;;;;5001512;28;20223;-59
2022/04/06 01:13:43;;;;;;;26.85;10.75;;;;;;;;;;5002572;28;20216;-59
2022/04/06 01:16:08;;;;;;;26.27;11.00;;;;;;;;;;4996289;28;20682;-59
2022/04/06 01:18:33;;;;;;;31.55;12.30;;;;;;;;;;4983253;28;20226;-58
2022/04/06 01:20:59;;;;;;;29.75;11.95;;;;;;;;;;4982946;28;20228;-59
2022/04/06 01:23:24;;;;;;;28.95;11.70;;;;;;;;;;4994410;28;20211;-59
2022/04/06 01:25:49;;;;;;;26.48;11.27;;;;;;;;;;4993662;28;20258;-59
2022/04/06 01:28:15;;;;;;;26.55;13.07;;;;;;;;;;4994344;28;20244;-59
2022/04/06 01:30:40;;;;;;;26.50;12.45;;;;;;;;;;4998088;28;20216;-59
2022/04/06 01:33:06;;;;;;;28.30;12.07;;;;;;;;;;5001823;28;20315;-59
2022/04/06 01:35:31;;;;;;;27.75;12.63;;;;;;;;;;5002370;28;20229;-59
2022/04/06 01:37:56;;;;;;;33.28;12.68;;;;;;;;;;5000972;28;20213;-59
2022/04/06 01:40:21;;;;;;;30.00;11.95;;;;;;;;;;4990121;28;20570;-59
2022/04/06 01:42:47;;;;;;;25.60;12.18;;;;;;;;;;5000219;28;20303;-59
2022/04/06 01:45:12;;;;;;;27.92;11.35;;;;;;;;;;4985149;28;20539;-59
2022/04/06 01:47:37;;;;;;;25.40;10.75;;;;;;;;;;4975633;28;20225;-59
2022/04/06 01:52:46;;;;;;;26.30;11.25;;;;;;;;;;4996944;28;20258;-59
2022/04/06 01:55:12;;;;;;;28.40;10.40;;;;;;;;;;5004948;28;20688;-59
2022/04/06 01:57:38;;;;;;;27.65;11.05;;;;;;;;;;5004709;28;20237;-59
2022/04/06 02:00:04;;;;;;;24.88;10.63;;;;;;;;;;5000529;28;20213;-59
2022/04/06 02:02:31;;;;;;;24.98;10.57;;;;;;;;;;4985806;28;20252;-59
2022/04/06 02:04:56;;;;;;;22.77;10.10;;;;;;;;;;5004440;28;20840;-59
2022/04/06 02:07:23;;;;;;;24.08;10.45;;;;;;;;;;5004908;28;20225;-59
2022/04/06 02:09:49;;;;;;;22.65;9.43;;;;;;;;;;4997094;28;20212;-59
2022/04/06 02:12:14;;;;;;;24.30;9.38;;;;;;;;;;4996214;28;20255;-59
2022/04/06 02:14:40;;;;;;;24.05;9.70;;;;;;;;;;4995466;28;20212;-59
2022/04/06 02:17:07;;;;;;;22.35;9.02;;;;;;;;;;4984673;28;20225;-59
2022/04/06 02:19:32;;;;;;;23.27;9.23;;;;;;;;;;4996117;28;20236;-59
2022/04/06 02:21:58;;;;;;;25.85;9.43;;;;;;;;;;4985728;28;20243;-59
2022/04/06 02:24:23;;;;;;;27.98;9.82;;;;;;;;;;4985462;28;20644;-59
2022/04/06 02:26:48;;;;;;;24.05;8.82;;;;;;;;;;4984621;28;20256;-59
2022/04/06 02:29:15;;;;;;;24.88;8.68;;;;;;;;;;4985637;28;20229;-59
2022/04/06 02:31:41;;;;;;;19.60;8.07;;;;;;;;;;4999056;28;20220;-59
2022/04/06 02:34:06;;;;;;;23.92;8.55;;;;;;;;;;4995707;28;20259;-59
2022/04/06 02:36:31;;;;;;;26.92;7.68;;;;;;;;;;4997235;28;20217;-59
2022/04/06 02:38:56;;;;;;;24.88;8.70;;;;;;;;;;5001580;28;20217;-59
2022/04/06 02:41:22;;;;;;;19.65;7.72;;;;;;;;;;4984639;28;20209;-59
2022/04/06 02:43:47;;;;;;;24.33;8.43;;;;;;;;;;5001116;28;20266;-59
2022/04/06 02:46:13;;;;;;;20.60;8.10;;;;;;;;;;4985228;28;20239;-59
2022/04/06 02:48:38;;;;;;;20.83;8.15;;;;;;;;;;4987714;28;21150;-59
2022/04/06 02:51:04;;;;;;;20.90;7.20;;;;;;;;;;4985031;28;20324;-60
2022/04/06 02:53:29;;;;;;;18.75;7.40;;;;;;;;;;4981403;28;20217;-59
2022/04/06 02:55:54;;;;;;;18.35;6.93;;;;;;;;;;4977205;28;20229;-59
2022/04/06 02:58:19;;;;;;;22.35;7.03;;;;;;;;;;4976702;28;20216;-59
2022/04/06 03:00:45;;;;;;;21.13;6.90;;;;;;;;;;4998145;28;20719;-59
2022/04/06 03:03:10;;;;;;;20.38;7.30;;;;;;;;;;5003581;28;20644;-59
2022/04/06 03:05:35;;;;;;;18.80;6.93;;;;;;;;;;5003521;28;20227;-59
2022/04/06 03:08:01;;;;;;;21.25;6.65;;;;;;;;;;5002771;28;20263;-60
2022/04/06 03:10:26;;;;;;;21.65;6.90;;;;;;;;;;5003908;28;20231;-59
2022/04/06 03:12:51;;;;;;;17.48;6.65;;;;;;;;;;5004091;28;20225;-59
2022/04/06 03:15:17;;;;;;;17.55;6.35;;;;;;;;;;4998196;28;20283;-59
2022/04/06 03:17:42;;;;;;;20.92;6.65;;;;;;;;;;4977263;28;20217;-59
2022/04/06 03:20:08;;;;;;;17.50;5.95;;;;;;;;;;4993223;28;20389;-59
2022/04/06 03:22:33;;;;;;;17.88;5.75;;;;;;;;;;4995794;28;20672;-59
2022/04/06 03:24:58;;;;;;;16.23;5.70;;;;;;;;;;5002551;28;20216;-59
2022/04/06 03:27:24;;;;;;;17.75;5.63;;;;;;;;;;5003123;28;20208;-59
2022/04/06 03:29:49;;;;;;;16.48;5.70;;;;;;;;;;5003034;28;20379;-59
2022/04/06 03:32:14;;;;;;;17.00;5.13;;;;;;;;;;5003226;28;20228;-59
2022/04/06 03:34:39;;;;;;;14.23;5.00;;;;;;;;;;5003545;28;20219;-59
2022/04/06 03:37:05;;;;;;;17.98;5.32;;;;;;;;;;5002497;28;20232;-59
2022/04/06 03:39:30;;;;;;;18.13;5.20;;;;;;;;;;4994003;28;20659;-59
2022/04/06 03:41:55;;;;;;;19.00;5.03;;;;;;;;;;4976167;28;20213;-59
2022/04/06 03:44:20;;;;;;;15.30;4.90;;;;;;;;;;4975285;28;20215;-59
2022/04/06 03:46:46;;;;;;;13.02;5.05;;;;;;;;;;4981104;28;20224;-59
2022/04/06 03:49:11;;;;;;;14.90;4.63;;;;;;;;;;4983888;28;20296;-59
2022/04/06 03:51:36;;;;;;;12.18;4.60;;;;;;;;;;4983266;28;20708;-59
2022/04/06 03:54:03;;;;;;;18.92;4.70;;;;;;;;;;5002725;28;20788;-60
2022/04/06 03:56:28;;;;;;;11.82;4.55;;;;;;;;;;5002599;28;20277;-59
2022/04/06 03:58:53;;;;;;;11.82;4.03;;;;;;;;;;4992564;28;20217;-59
2022/04/06 04:01:19;;;;;;;12.85;3.83;;;;;;;;;;4981124;28;20213;-59
2022/04/06 04:03:44;;;;;;;15.23;4.18;;;;;;;;;;4994533;28;20266;-59
2022/04/06 04:06:09;;;;;;;16.10;3.75;;;;;;;;;;4994474;28;20212;-59
2022/04/06 04:08:34;;;;;;;12.23;3.58;;;;;;;;;;4997034;28;20236;-59
2022/04/06 04:11:00;;;;;;;13.48;3.45;;;;;;;;;;5002114;28;20219;-59
2022/04/06 04:13:25;;;;;;;11.60;3.63;;;;;;;;;;5002470;28;20218;-59
2022/04/06 04:15:50;;;;;;;14.23;3.97;;;;;;;;;;4990648;28;20221;-59
2022/04/06 04:18:16;;;;;;;14.88;3.42;;;;;;;;;;4982520;28;20217;-59
2022/04/06 04:20:45;;;;;;;12.40;3.97;;;;;;;;;;4983785;28;20683;-59
2022/04/06 04:23:10;;;;;;;11.55;3.00;;;;;;;;;;5001921;28;20216;-59
2022/04/06 04:25:35;;;;;;;15.35;3.35;;;;;;;;;;4995186;28;20201;-59
2022/04/06 04:28:00;;;;;;;13.45;3.05;;;;;;;;;;4993907;28;20753;-60
2022/04/06 04:30:26;;;;;;;10.60;3.30;;;;;;;;;;4995377;28;20212;-59
2022/04/06 04:32:51;;;;;;;11.82;3.20;;;;;;;;;;5000607;28;20213;-59
2022/04/06 04:35:16;;;;;;;12.70;3.38;;;;;;;;;;5001957;28;20263;-59
2022/04/06 04:37:42;;;;;;;13.70;3.60;;;;;;;;;;5002545;28;20641;-59
2022/04/06 04:40:07;;;;;;;13.80;2.88;;;;;;;;;;4991638;28;20251;-59
2022/04/06 04:42:33;;;;;;;9.10;3.20;;;;;;;;;;4983348;28;20208;-59
2022/04/06 04:44:59;;;;;;;9.85;3.00;;;;;;;;;;4983384;28;20284;-59
2022/04/06 04:47:24;;;;;;;14.13;3.20;;;;;;;;;;4978338;28;20279;-59
2022/04/06 04:49:49;;;;;;;11.00;3.10;;;;;;;;;;4975223;28;20282;-59
2022/04/06 04:52:14;;;;;;;14.52;3.13;;;;;;;;;;4974901;28;20336;-59
2022/04/06 04:54:40;;;;;;;11.32;2.90;;;;;;;;;;4997392;28;20220;-59
2022/04/06 04:57:05;;;;;;;10.82;2.67;;;;;;;;;;5002132;28;20419;-59
2022/04/06 04:59:31;;;;;;;11.55;3.20;;;;;;;;;;4987055;28;20209;-59
2022/04/06 05:01:56;;;;;;;13.95;3.38;;;;;;;;;;4982619;28;20580;-59
2022/04/06 05:04:22;;;;;;;9.85;3.10;;;;;;;;;;4982835;28;20450;-59
2022/04/06 05:06:47;;;;;;;11.75;3.67;;;;;;;;;;4983385;28;20224;-59
2022/04/06 05:09:12;;;;;;;10.40;3.35;;;;;;;;;;4979902;28;20897;-59
2022/04/06 05:11:38;;;;;;;9.95;3.42;;;;;;;;;;4975396;28;20737;-59
2022/04/06 05:14:03;;;;;;;10.02;2.80;;;;;;;;;;4974085;28;20213;-60
2022/04/06 05:16:28;;;;;;;13.52;3.38;;;;;;;;;;4978453;28;20621;-59
2022/04/06 05:18:55;;;;;;;10.98;3.22;;;;;;;;;;4983020;28;20287;-59
2022/04/06 05:21:20;;;;;;;12.57;3.63;;;;;;;;;;4999320;28;20297;-59
2022/04/06 05:23:45;;;;;;;15.52;3.72;;;;;;;;;;5002446;28;20298;-59
2022/04/06 05:26:10;;;;;;;12.95;3.60;;;;;;;;;;5001478;28;20212;-59
2022/04/06 05:28:36;;;;;;;12.23;4.00;;;;;;;;;;5003299;28;20208;-59
2022/04/06 05:31:01;;;;;;;10.75;3.58;;;;;;;;;;5005630;28;20275;-59
2022/04/06 05:33:26;;;;;;;11.50;3.38;;;;;;;;;;4999255;28;20770;-59
2022/04/06 05:35:51;;;;;;;11.57;3.80;;;;;;;;;;4997065;28;20246;-59
2022/04/06 05:38:17;;;;;;;17.50;4.15;;;;;;;;;;4997730;28;20219;-59
2022/04/06 05:40:42;;;;;;;14.50;4.13;;;;;;;;;;4990452;28;20220;-59
2022/04/06 05:43:07;;;;;;;10.25;3.58;;;;;;;;;;4985097;28;20275;-59
2022/04/06 05:45:33;;;;;;;14.55;3.75;;;;;;;;;;4986963;28;20683;-59
2022/04/06 05:47:58;;;;;;;15.23;4.28;;;;;;;;;;4986681;28;20233;-59
2022/04/06 05:50:23;;;;;;;13.23;3.10;;;;;;;;;;4985255;28;20224;-59
2022/04/06 05:52:48;;;;;;;13.23;3.35;;;;;;;;;;4986259;28;20244;-59
2022/04/06 05:55:14;;;;;;;14.95;3.50;;;;;;;;;;4984780;28;20220;-59
2022/04/06 05:57:39;;;;;;;12.88;3.70;;;;;;;;;;4996549;28;20330;-59
2022/04/06 06:00:06;;;;;;;12.02;3.50;;;;;;;;;;4978031;28;20217;-59
2022/04/06 06:02:32;;;;;;;12.10;3.55;;;;;;;;;;5002549;28;20244;-59
2022/04/06 06:04:57;;;;;;;15.32;3.60;;;;;;;;;;5014170;28;20247;-59
2022/04/06 06:07:23;;;;;;;12.82;3.03;;;;;;;;;;5015118;28;20747;-61
2022/04/06 06:09:48;;;;;;;12.57;3.57;;;;;;;;;;5014315;28;20431;-60
2022/04/06 06:12:13;;;;;;;12.15;3.10;;;;;;;;;;5014426;28;20641;-60
2022/04/06 06:14:39;;;;;;;18.02;3.67;;;;;;;;;;5015464;28;20738;-60
2022/04/06 06:17:04;;;;;;;14.02;4.00;;;;;;;;;;5014896;28;20228;-60
2022/04/06 06:19:29;;;;;;;14.02;3.35;;;;;;;;;;5014632;28;20566;-60
2022/04/06 06:21:54;;;;;;;11.38;3.60;;;;;;;;;;5015537;28;20258;-61
2022/04/06 06:24:21;;;;;;;11.85;3.38;;;;;;;;;;5014059;28;20219;-61
2022/04/06 06:26:46;;;;;;;13.32;3.45;;;;;;;;;;5015194;28;20212;-61
2022/04/06 06:29:11;;;;;;;13.07;4.25;;;;;;;;;;5014752;28;20212;-61
2022/04/06 06:31:37;;;;;;;13.63;4.70;;;;;;;;;;5014395;28;21075;-61
2022/04/06 06:34:02;;;;;;;12.50;4.10;;;;;;;;;;5014693;28;20687;-61
2022/04/06 06:36:27;;;;;;;13.98;4.30;;;;;;;;;;5014377;28;20228;-61
2022/04/06 06:38:53;;;;;;;15.38;4.55;;;;;;;;;;5013459;28;21625;-61
2022/04/06 06:41:18;;;;;;;16.77;5.60;;;;;;;;;;5013808;28;20219;-61
2022/04/06 06:43:44;;;;;;;15.57;4.60;;;;;;;;;;5014293;28;20667;-61
2022/04/06 06:46:10;;;;;;;14.90;4.70;;;;;;;;;;5012709;28;20212;-61
2022/04/06 06:48:35;;;;;;;14.40;5.20;;;;;;;;;;5014214;28;20287;-61
2022/04/06 06:51:00;;;;;;;15.88;5.45;;;;;;;;;;5013899;28;20747;-61
2022/04/06 06:53:25;;;;;;;14.20;4.80;;;;;;;;;;5013522;28;20212;-61
2022/04/06 06:55:51;;;;;;;17.42;5.05;;;;;;;;;;5013882;28;20212;-61
2022/04/06 06:58:16;;;;;;;13.27;5.43;;;;;;;;;;5013609;28;21206;-61
2022/04/06 07:00:41;;;;;;;16.13;5.10;;;;;;;;;;5013216;28;20224;-61
2022/04/06 07:03:07;;;;;;;14.70;5.18;;;;;;;;;;5013490;28;20295;-61
2022/04/06 07:05:32;;;;;;;14.43;4.90;;;;;;;;;;5012930;28;20239;-60
2022/04/06 07:07:58;;;;;;;16.05;4.82;;;;;;;;;;5013103;28;20204;-60
2022/04/06 07:10:23;;;;;;;17.10;4.90;;;;;;;;;;5012074;28;20208;-60
2022/04/06 07:12:49;;;;;;;19.98;4.93;;;;;;;;;;5008496;28;20213;-59
2022/04/06 07:15:14;;;;;;;15.23;4.65;;;;;;;;;;5012859;28;20711;-60
2022/04/06 07:17:40;;;;;;;16.48;4.53;;;;;;;;;;5013763;28;20684;-59
2022/04/06 07:20:05;;;;;;;16.08;4.25;;;;;;;;;;5006689;28;20208;-59
2022/04/06 07:22:30;;;;;;;16.75;4.18;;;;;;;;;;5011912;28;20303;-60
2022/04/06 07:24:56;;;;;;;20.10;5.05;;;;;;;;;;5013620;28;20286;-59
2022/04/06 07:27:21;;;;;;;13.13;3.70;;;;;;;;;;5012661;28;20219;-59
2022/04/06 07:29:46;;;;;;;13.75;3.90;;;;;;;;;;5010497;28;20300;-59
2022/04/06 07:32:12;;;;;;;14.23;3.97;;;;;;;;;;5012470;28;20220;-59
2022/04/06 07:34:38;;;;;;;13.75;3.78;;;;;;;;;;5013135;28;20212;-59
2022/04/06 07:37:03;;;;;;;12.18;3.13;;;;;;;;;;5012467;28;20240;-59
2022/04/06 07:39:28;;;;;;;18.55;3.55;;;;;;;;;;5011466;28;20219;-59
2022/04/06 07:41:56;;;;;;;10.95;3.00;;;;;;;;;;5012319;28;20269;-59
2022/04/06 07:44:22;;;;;;;13.50;3.53;;;;;;;;;;5010634;28;20216;-59
2022/04/06 07:46:47;;;;;;;12.57;2.97;;;;;;;;;;5012603;28;20226;-59
2022/04/06 07:49:12;;;;;;;11.38;2.67;;;;;;;;;;4992631;28;20714;-60
2022/04/06 07:51:38;;;;;;;12.43;2.50;;;;;;;;;;4993263;28;20244;-59
2022/04/06 07:54:03;;;;;;;9.52;2.17;;;;;;;;;;4993636;28;20219;-60
2022/04/06 07:56:28;;;;;;;10.70;2.33;;;;;;;;;;4992878;28;20570;-59
2022/04/06 07:58:54;;;;;;;10.82;2.38;;;;;;;;;;5004100;28;20212;-59
2022/04/06 08:01:19;;;;;;;11.70;2.50;;;;;;;;;;5012971;28;20204;-59
2022/04/06 08:03:44;;;;;;;10.57;2.15;;;;;;;;;;5012319;28;20698;-59
2022/04/06 08:06:10;;;;;;;9.40;2.50;;;;;;;;;;5012942;28;20208;-59
2022/04/06 08:08:35;;;;;;;11.95;2.30;;;;;;;;;;5013113;28;20299;-60
2022/04/06 08:11:00;;;;;;;9.30;2.70;;;;;;;;;;5012402;28;20221;-60
2022/04/06 08:13:26;;;;;;;6.88;1.95;;;;;;;;;;5012901;28;20609;-60
2022/04/06 08:15:51;;;;;;;7.35;1.65;;;;;;;;;;5012932;28;20699;-60
2022/04/06 08:18:16;;;;;;;8.10;1.90;;;;;;;;;;5011639;28;20227;-60
2022/04/06 08:20:43;;;;;;;10.18;2.42;;;;;;;;;;5013066;28;20244;-60
2022/04/06 08:23:08;;;;;;;7.00;2.00;;;;;;;;;;5012641;28;20623;-60
2022/04/06 08:25:33;;;;;;;7.80;1.90;;;;;;;;;;5012398;28;20205;-60
2022/04/06 08:27:59;;;;;;;8.82;1.90;;;;;;;;;;5012929;28;20215;-60
2022/04/06 08:30:24;;;;;;;9.63;2.10;;;;;;;;;;5012533;28;20656;-60
2022/04/06 08:32:49;;;;;;;7.20;2.40;;;;;;;;;;5011770;28;20227;-60
2022/04/06 08:35:14;;;;;;;7.50;2.10;;;;;;;;;;5007567;28;20213;-60
2022/04/06 08:37:40;;;;;;;7.63;1.90;;;;;;;;;;5014534;28;20215;-60
2022/04/06 08:40:06;;;;;;;6.90;1.70;;;;;;;;;;5031690;28;20216;-60
2022/04/06 08:42:32;;;;;;;8.10;2.08;;;;;;;;;;5030612;28;20220;-60
2022/04/06 08:44:59;;;;;;;8.45;1.70;;;;;;;;;;5011465;28;20291;-60
2022/04/06 08:47:24;;;;;;;9.20;2.03;;;;;;;;;;5011808;28;20212;-60
2022/04/06 08:49:49;;;;;;;8.18;2.00;;;;;;;;;;5010774;28;20234;-61
2022/04/06 08:52:16;;;;;;;9.23;2.35;;;;;;;;;;5011604;28;20274;-61
2022/04/06 08:54:41;;;;;;;8.88;2.28;;;;;;;;;;5012673;28;20679;-61
2022/04/06 08:57:06;;;;;;;10.05;2.63;;;;;;;;;;5012244;28;20232;-61
2022/04/06 08:59:32;;;;;;;9.60;2.30;;;;;;;;;;5010318;28;20212;-61
2022/04/06 09:01:57;;;;;;;9.35;2.38;;;;;;;;;;5012513;28;20310;-61
2022/04/06 09:04:24;;;;;;;12.60;2.65;;;;;;;;;;5015965;28;20215;-61
2022/04/06 09:06:49;;;;;;;10.07;2.45;;;;;;;;;;5016002;28;20216;-61
2022/04/06 09:09:19;;;;;;;9.60;3.20;;;;;;;;;;5016134;28;20227;-60
2022/04/06 09:11:44;;;;;;;9.60;2.60;;;;;;;;;;5016653;28;20216;-60
2022/04/06 09:14:10;;;;;;;8.98;3.22;;;;;;;;;;5015088;28;20213;-61
2022/04/06 09:16:35;;;;;;;11.85;3.05;;;;;;;;;;5016633;28;20753;-60
2022/04/06 09:19:17;;;;;;;9.13;3.58;;;;;;;;;;5015878;28;20235;-61
2022/04/06 09:21:43;;;;;;;10.88;3.10;;;;;;;;;;5015789;28;20208;-60
2022/04/06 09:24:15;;;;;;;13.73;3.72;;;;;;;;;;5016326;28;20223;-60
2022/04/06 09:26:40;;;;;;;10.38;3.80;;;;;;;;;;5016451;28;20255;-60
2022/04/06 09:29:06;;;;;;;10.98;3.92;;;;;;;;;;5014876;28;20220;-61
2022/04/06 09:31:36;;;;;;;11.10;3.80;;;;;;;;;;5016426;28;20262;-60
2022/04/06 09:34:02;;;;;;;10.30;3.95;;;;;;;;;;5015596;28;20208;-60
2022/04/06 09:36:28;;;;;;;11.32;4.05;;;;;;;;;;5015190;28;20224;-60
2022/04/06 09:38:54;;;;;;;11.27;4.13;;;;;;;;;;5013757;28;20695;-60
2022/04/06 09:41:19;;;;;;;9.80;4.05;;;;;;;;;;5012702;28;20218;-60
2022/04/06 09:43:45;;;;;;;13.55;4.65;;;;;;;;;;5015611;28;20216;-60
2022/04/06 09:49:03;;;;;;;13.85;4.53;;;;;;;;;;5014456;28;20718;-61
2022/04/06 09:51:29;;;;;;;13.45;4.43;;;;;;;;;;5015642;28;20227;-60
2022/04/06 09:53:54;;;;;;;12.82;4.93;;;;;;;;;;5015780;28;20212;-60
2022/04/06 09:56:20;;;;;;;10.85;5.00;;;;;;;;;;5014679;28;20599;-60
2022/04/06 09:58:45;;;;;;;14.02;5.20;;;;;;;;;;5015475;28;20643;-60
2022/04/06 10:01:12;;;;;;;14.32;5.20;;;;;;;;;;5015450;28;20216;-60
2022/04/06 10:03:38;;;;;;;11.65;5.38;;;;;;;;;;5014907;28;20296;-60
2022/04/06 10:06:04;;;;;;;12.55;4.88;;;;;;;;;;5015118;28;20296;-60
2022/04/06 10:08:29;;;;;;;13.68;5.90;;;;;;;;;;5014109;28;20287;-60
2022/04/06 10:10:58;;;;;;;10.77;5.40;;;;;;;;;;5014648;28;20258;-60
2022/04/06 10:13:24;;;;;;;11.05;5.53;;;;;;;;;;4999533;28;20264;-61
2022/04/06 10:15:49;;;;;;;11.25;5.35;;;;;;;;;;4994277;28;20633;-60
2022/04/06 10:18:14;;;;;;;13.20;5.53;;;;;;;;;;4994583;28;20221;-60
2022/04/06 10:20:43;;;;;;;16.02;6.70;;;;;;;;;;4995351;28;20303;-60
2022/04/06 10:23:11;;;;;;;13.45;6.20;;;;;;;;;;4994077;28;20248;-60
2022/04/06 10:25:41;;;;;;;15.13;6.30;;;;;;;;;;4994883;28;20216;-61
2022/04/06 10:28:10;;;;;;;12.18;6.30;;;;;;;;;;4993630;28;20216;-60
2022/04/06 10:30:35;;;;;;;16.95;6.72;;;;;;;;;;4994742;28;20579;-60
2022/04/06 10:33:02;;;;;;;15.63;7.22;;;;;;;;;;4995056;28;20217;-60
2022/04/06 10:35:30;;;;;;;12.73;5.95;;;;;;;;;;4994193;28;20221;-60
2022/04/06 10:37:56;;;;;;;16.30;6.97;;;;;;;;;;4994633;28;20213;-60
2022/04/06 10:40:21;;;;;;;12.20;6.75;;;;;;;;;;4994934;28;20217;-60
2022/04/06 10:42:46;;;;;;;15.82;7.13;;;;;;;;;;4995472;28;20228;-60
2022/04/06 10:45:36;;;;;;;12.25;6.28;;;;;;;;;;5006579;28;20218;-60
2022/04/06 10:48:08;;;;;;;15.25;6.35;;;;;;;;;;5013560;28;20218;-60
2022/04/06 10:50:33;;;;;;;12.20;5.72;;;;;;;;;;5012551;28;20219;-60
2022/04/06 10:53:24;;;;;;;14.10;6.22;;;;;;;;;;4997093;28;20233;-60
2022/04/06 10:55:56;;;;;;;12.88;6.07;;;;;;;;;;4994603;28;20845;-60
2022/04/06 10:58:23;;;;;;;11.25;5.68;;;;;;;;;;4999617;28;20262;-60
2022/04/06 11:01:09;;;;;;;11.93;5.97;;;;;;;;;;4994264;28;20209;-60
2022/04/06 11:03:35;;;;;;;12.70;5.93;;;;;;;;;;4996124;28;20208;-60
2022/04/06 11:06:00;;;;;;;10.20;6.10;;;;;;;;;;5011680;28;20215;-60
2022/04/06 11:11:38;;;;;;;10.43;6.10;;;;;;;;;;5008176;28;20215;-60
2022/04/06 11:14:03;;;;;;;11.18;5.90;;;;;;;;;;5010121;28;20224;-60
2022/04/06 11:16:42;;;;;;;12.40;6.18;;;;;;;;;;5014274;28;20574;-60
2022/04/06 11:19:08;;;;;;;12.20;6.28;;;;;;;;;;5013803;28;20294;-60
2022/04/06 11:21:33;;;;;;;13.73;6.15;;;;;;;;;;5013402;28;20232;-60
2022/04/06 11:23:58;;;;;;;9.35;5.90;;;;;;;;;;5009208;28;20245;-60
2022/04/06 11:26:24;;;;;;;13.18;6.25;;;;;;;;;;5012773;28;20280;-60
2022/04/06 11:28:56;;;;;;;14.07;6.35;;;;;;;;;;5011734;28;20208;-60
2022/04/06 11:31:22;;;;;;;11.50;6.10;;;;;;;;;;5013732;28;20668;-60
2022/04/06 11:33:47;;;;;;;11.25;6.10;;;;;;;;;;5013503;28;20208;-60
2022/04/06 11:36:14;;;;;;;12.63;5.75;;;;;;;;;;5012768;28;20225;-61
2022/04/06 11:38:40;;;;;;;13.30;6.20;;;;;;;;;;5012989;28;20216;-60
2022/04/06 11:41:05;;;;;;;11.85;5.63;;;;;;;;;;5012848;28;20217;-61
2022/04/06 11:43:31;;;;;;;13.95;5.65;;;;;;;;;;5012065;28;20213;-61
2022/04/06 11:45:57;;;;;;;12.18;5.65;;;;;;;;;;5014014;28;20215;-61
2022/04/06 11:48:22;;;;;;;11.20;5.85;;;;;;;;;;5011192;28;20228;-61
2022/04/06 11:50:49;;;;;;;12.85;4.95;;;;;;;;;;5013360;28;20223;-60
2022/04/06 11:53:17;;;;;;;10.15;4.00;;;;;;;;;;5013341;28;20224;-61
2022/04/06 11:55:49;;;;;;;10.25;4.57;;;;;;;;;;5010050;28;20312;-60
2022/04/06 11:58:30;;;;;;;10.43;4.50;;;;;;;;;;5012320;28;20259;-61
2022/04/06 12:00:58;;;;;;;9.93;4.45;;;;;;;;;;5013568;28;20227;-60
2022/04/06 12:03:27;;;;;;;12.98;5.53;;;;;;;;;;5010619;28;20243;-61
2022/04/06 12:05:52;;;;;;;10.25;4.90;;;;;;;;;;5013321;28;20216;-60
2022/04/06 12:08:17;;;;;;;11.10;4.80;;;;;;;;;;5015031;28;20306;-61
2022/04/06 12:10:46;;;;;;;10.07;4.70;;;;;;;;;;5012886;28;20209;-61
2022/04/06 12:13:11;;;;;;;9.95;4.78;;;;;;;;;;5009907;28;20684;-61
2022/04/06 12:15:39;;;;;;;9.18;4.82;;;;;;;;;;5013301;28;20251;-61
2022/04/06 12:18:04;;;;;;;10.13;4.35;;;;;;;;;;5010736;28;20311;-61
2022/04/06 12:20:29;;;;;;;10.85;5.05;;;;;;;;;;5015822;28;20299;-62
2022/04/06 12:23:02;;;;;;;15.60;5.43;;;;;;;;;;5032904;28;20685;-61
2022/04/06 12:25:28;;;;;;;9.43;5.25;;;;;;;;;;5032410;28;20207;-61
2022/04/06 12:28:08;;;;;;;9.90;4.85;;;;;;;;;;5032453;28;20262;-61
2022/04/06 12:30:33;;;;;;;11.82;4.80;;;;;;;;;;5031806;28;20630;-61
2022/04/06 12:32:59;;;;;;;11.93;5.00;;;;;;;;;;5032687;28;20679;-61
2022/04/06 12:35:24;;;;;;;11.27;5.20;;;;;;;;;;5032298;28;20222;-61
2022/04/06 12:37:50;;;;;;;13.63;4.60;;;;;;;;;;5031432;28;20667;-61
2022/04/06 12:40:20;;;;;;;9.98;4.90;;;;;;;;;;5031861;28;20211;-61
2022/04/06 12:42:45;;;;;;;9.63;4.30;;;;;;;;;;5032246;28;20215;-61
2022/04/06 12:45:12;;;;;;;10.45;4.50;;;;;;;;;;5031373;28;20571;-61
2022/04/06 12:47:37;;;;;;;12.02;5.18;;;;;;;;;;5019556;28;20220;-61
2022/04/06 12:50:09;;;;;;;12.07;4.90;;;;;;;;;;5012323;28;20694;-61
2022/04/06 12:52:37;;;;;;;9.13;4.00;;;;;;;;;;5011730;28;20247;-61
2022/04/06 12:55:03;;;;;;;6.30;3.40;;;;;;;;;;5012152;28;20582;-62
2022/04/06 12:57:29;;;;;;;8.45;3.83;;;;;;;;;;5012350;28;20224;-61
2022/04/06 12:59:56;;;;;;;9.20;4.20;;;;;;;;;;5011832;28;20209;-61
2022/04/06 13:02:25;;;;;;;9.88;4.38;;;;;;;;;;5012300;28;20208;-62
2022/04/06 13:04:50;;;;;;;7.25;3.78;;;;;;;;;;5012576;28;20381;-62
2022/04/06 13:07:16;;;;;;;6.43;3.60;;;;;;;;;;5011279;28;20299;-61
2022/04/06 13:09:50;;;;;;;8.52;3.90;;;;;;;;;;5012372;28;20294;-62
2022/04/06 13:12:15;;;;;;;10.27;3.70;;;;;;;;;;5011347;28;20247;-61
2022/04/06 13:14:40;;;;;;;12.32;4.07;;;;;;;;;;5012602;28;20239;-61
2022/04/06 13:17:06;;;;;;;11.48;3.65;;;;;;;;;;5011773;28;20224;-61
2022/04/06 13:19:31;;;;;;;9.18;4.05;;;;;;;;;;5008984;28;20770;-61
2022/04/06 13:21:56;;;;;;;8.65;3.88;;;;;;;;;;5012469;28;20675;-61
2022/04/06 13:24:22;;;;;;;7.32;3.58;;;;;;;;;;5012006;28;20267;-60
2022/04/06 13:26:48;;;;;;;9.15;4.03;;;;;;;;;;5011556;28;20250;-61
2022/04/06 13:29:14;;;;;;;7.85;3.60;;;;;;;;;;5011812;28;20643;-61
2022/04/06 13:31:41;;;;;;;6.38;3.50;;;;;;;;;;5012675;28;20216;-61
2022/04/06 13:34:07;;;;;;;9.63;3.70;;;;;;;;;;5011342;28;20246;-61
2022/04/06 13:36:33;;;;;;;5.47;3.33;;;;;;;;;;5012210;28;20294;-61
2022/04/06 13:38:58;;;;;;;9.20;3.38;;;;;;;;;;5012027;28;20224;-61
2022/04/06 13:41:23;;;;;;;8.25;3.22;;;;;;;;;;5010970;28;20224;-61
2022/04/06 13:43:49;;;;;;;10.52;3.80;;;;;;;;;;5012068;28;20209;-61
2022/04/06 13:46:14;;;;;;;9.10;3.60;;;;;;;;;;5011792;28;20231;-61
2022/04/06 13:48:40;;;;;;;10.00;3.70;;;;;;;;;;5012021;28;20699;-61
2022/04/06 13:51:06;;;;;;;6.43;3.42;;;;;;;;;;5015144;28;20759;-61
2022/04/06 13:53:32;;;;;;;9.68;3.60;;;;;;;;;;5015891;28;20212;-61
2022/04/06 13:55:57;;;;;;;8.90;3.63;;;;;;;;;;5014609;28;20703;-61
2022/04/06 13:58:22;;;;;;;6.15;3.28;;;;;;;;;;5015251;28;20645;-61
2022/04/06 14:00:48;;;;;;;8.23;3.42;;;;;;;;;;5015736;28;20248;-61
2022/04/06 14:03:14;;;;;;;5.82;3.60;;;;;;;;;;5014272;28;20563;-61
2022/04/06 14:05:41;;;;;;;9.95;4.00;;;;;;;;;;5015623;28;20216;-61
2022/04/06 14:08:06;;;;;;;11.45;4.40;;;;;;;;;;5015272;28;20247;-61
2022/04/06 14:10:31;;;;;;;8.52;3.50;;;;;;;;;;5013460;28;20212;-61
2022/04/06 14:12:57;;;;;;;5.25;3.38;;;;;;;;;;5014913;28;20233;-61
2022/04/06 14:15:22;;;;;;;8.55;3.35;;;;;;;;;;5014895;28;20698;-61
2022/04/06 14:17:48;;;;;;;7.57;3.35;;;;;;;;;;5014563;28;20220;-61
2022/04/06 14:20:13;;;;;;;6.47;3.95;;;;;;;;;;5014786;28;20217;-61
2022/04/06 14:22:38;;;;;;;9.52;4.63;;;;;;;;;;5014378;28;20216;-61
2022/04/06 14:25:15;;;;;;;6.78;3.35;;;;;;;;;;5014817;28;20262;-62
2022/04/06 14:27:41;;;;;;;7.60;3.40;;;;;;;;;;5014818;28;20235;-61
2022/04/06 14:30:06;;;;;;;8.90;3.70;;;;;;;;;;5014049;28;20244;-61
2022/04/06 14:32:32;;;;;;;9.05;3.33;;;;;;;;;;5015235;28;20219;-61
2022/04/06 14:34:57;;;;;;;7.25;3.75;;;;;;;;;;5015263;28;20223;-61